sensor_id;sensor_type;location;lat;lon;timestamp;temperature;humidity
42803;DHT22;28447;48.682;9.022;2023-06-10T04:00:22;14.10;99.90
42803;DHT22;28447;48.682;9.022;2023-06-10T04:02:48;14.10;99.90
42803;DHT22;28447;48.682;9.022;2023-06-10T04:05:19;14.30;99.90
42803;DHT22;28447;48.682;9.022;2023-06-10T04:07:47;14.20;99.90
42803;DHT22;28447;48.682;9.022;2023-06-10T04:10:14;14.30;99.90
42803;DHT22;28447;48.682;9.022;2023-06-10T04:12:39;14.30;99.90
42803;DHT22;28447;48.682;9.022;2023-06-10T04:15:06;14.30;99.90
42803;DHT22;28447;48.682;9.022;2023-06-10T04:17:32;14.30;99.90
42803;DHT22;28447;48.682;9.022;2023-06-10T04:19:58;14.20;99.90
42803;DHT22;28447;48.682;9.022;2023-06-10T04:22:24;14.10;99.90
42803;DHT22;28447;48.682;9.022;2023-06-10T04:24:49;14.20;99.90
42803;DHT22;28447;48.682;9.022;2023-06-10T04:27:15;14.30;99.90
42803;DHT22;28447;48.682;9.022;2023-06-10T04:29:41;14.40;99.90
42803;DHT22;28447;48.682;9.022;2023-06-10T04:32:07;14.40;99.90
42803;DHT22;28447;48.682;9.022;2023-06-10T04:34:36;14.50;99.90
42803;DHT22;28447;48.682;9.022;2023-06-10T04:37:04;14.60;99.90
42803;DHT22;28447;48.682;9.022;2023-06-10T04:39:30;14.80;99.90
42803;DHT22;28447;48.682;9.022;2023-06-10T04:41:56;14.90;99.90
42803;DHT22;28447;48.682;9.022;2023-06-10T04:44:21;14.90;99.90
42803;DHT22;28447;48.682;9.022;2023-06-10T04:46:47;15.00;99.90
42803;DHT22;28447;48.682;9.022;2023-06-10T04:49:13;15.10;99.90
42803;DHT22;28447;48.682;9.022;2023-06-10T04:51:41;15.10;99.90
42803;DHT22;28447;48.682;9.022;2023-06-10T04:54:07;15.20;99.90
42803;DHT22;28447;48.682;9.022;2023-06-10T04:56:33;15.40;99.90
42803;DHT22;28447;48.682;9.022;2023-06-10T04:58:59;15.50;99.90
42803;DHT22;28447;48.682;9.022;2023-06-10T05:01:25;15.50;99.90
42803;DHT22;28447;48.682;9.022;2023-06-10T05:03:51;15.60;99.90
42803;DHT22;28447;48.682;9.022;2023-06-10T05:06:17;15.70;99.90
42803;DHT22;28447;48.682;9.022;2023-06-10T05:08:43;15.80;99.90
42803;DHT22;28447;48.682;9.022;2023-06-10T05:11:08;16.00;99.90
42803;DHT22;28447;48.682;9.022;2023-06-10T05:13:34;16.30;99.90
42803;DHT22;28447;48.682;9.022;2023-06-10T05:16:00;16.20;99.90
42803;DHT22;28447;48.682;9.022;2023-06-10T05:18:25;16.40;99.90
42803;DHT22;28447;48.682;9.022;2023-06-10T05:20:51;16.40;99.90
42803;DHT22;28447;48.682;9.022;2023-06-10T05:23:19;16.50;99.90
42803;DHT22;28447;48.682;9.022;2023-06-10T05:25:45;16.70;99.90
42803;DHT22;28447;48.682;9.022;2023-06-10T05:28:10;17.00;99.90
42803;DHT22;28447;48.682;9.022;2023-06-10T05:30:36;17.10;99.90
42803;DHT22;28447;48.682;9.022;2023-06-10T05:33:03;17.30;99.90
42803;DHT22;28447;48.682;9.022;2023-06-10T05:35:29;17.50;99.90
42803;DHT22;28447;48.682;9.022;2023-06-10T05:37:54;17.90;99.90
42803;DHT22;28447;48.682;9.022;2023-06-10T05:40:20;18.10;99.90
42803;DHT22;28447;48.682;9.022;2023-06-10T05:42:46;18.40;99.90
42803;DHT22;28447;48.682;9.022;2023-06-10T05:45:11;18.60;99.90
42803;DHT22;28447;48.682;9.022;2023-06-10T05:47:37;18.70;99.90
42803;DHT22;28447;48.682;9.022;2023-06-10T05:50:03;18.90;99.90
42803;DHT22;28447;48.682;9.022;2023-06-10T05:52:33;19.00;99.90
42803;DHT22;28447;48.682;9.022;2023-06-10T05:54:59;19.00;99.90
42803;DHT22;28447;48.682;9.022;2023-06-10T05:57:25;19.10;99.90
42803;DHT22;28447;48.682;9.022;2023-06-10T05:59:51;19.30;99.90
42803;DHT22;28447;48.682;9.022;2023-06-10T06:02:17;19.50;99.90
42803;DHT22;28447;48.682;9.022;2023-06-10T06:04:43;19.60;99.90
42803;DHT22;28447;48.682;9.022;2023-06-10T06:07:09;19.60;99.90
42803;DHT22;28447;48.682;9.022;2023-06-10T06:09:34;19.90;99.90
42803;DHT22;28447;48.682;9.022;2023-06-10T06:12:00;19.90;99.90
42803;DHT22;28447;48.682;9.022;2023-06-10T06:14:26;19.80;99.90
42803;DHT22;28447;48.682;9.022;2023-06-10T06:16:51;19.80;99.90
42803;DHT22;28447;48.682;9.022;2023-06-10T06:19:17;20.00;99.90
42803;DHT22;28447;48.682;9.022;2023-06-10T06:21:42;20.20;99.90
42803;DHT22;28447;48.682;9.022;2023-06-10T06:24:08;20.40;99.90
42803;DHT22;28447;48.682;9.022;2023-06-10T06:26:34;20.50;99.90
42803;DHT22;28447;48.682;9.022;2023-06-10T06:28:59;20.60;99.90
42803;DHT22;28447;48.682;9.022;2023-06-10T06:31:25;20.70;99.90
42803;DHT22;28447;48.682;9.022;2023-06-10T06:33:51;20.80;99.90
42803;DHT22;28447;48.682;9.022;2023-06-10T06:36:16;20.70;99.90
42803;DHT22;28447;48.682;9.022;2023-06-10T06:38:42;20.70;99.90
42803;DHT22;28447;48.682;9.022;2023-06-10T06:41:07;21.00;99.90
42803;DHT22;28447;48.682;9.022;2023-06-10T06:43:33;21.80;99.90
42803;DHT22;28447;48.682;9.022;2023-06-10T06:45:59;22.10;99.90
42803;DHT22;28447;48.682;9.022;2023-06-10T06:48:25;22.40;99.90
42803;DHT22;28447;48.682;9.022;2023-06-10T06:50:51;22.50;99.90
42803;DHT22;28447;48.682;9.022;2023-06-10T06:53:16;22.60;99.90
42803;DHT22;28447;48.682;9.022;2023-06-10T06:55:42;22.60;99.90
42803;DHT22;28447;48.682;9.022;2023-06-10T06:58:08;22.50;99.90
42803;DHT22;28447;48.682;9.022;2023-06-10T07:00:33;22.70;99.90
42803;DHT22;28447;48.682;9.022;2023-06-10T07:02:59;23.00;99.90
42803;DHT22;28447;48.682;9.022;2023-06-10T07:05:25;23.20;99.90
42803;DHT22;28447;48.682;9.022;2023-06-10T07:07:53;23.30;99.90
42803;DHT22;28447;48.682;9.022;2023-06-10T07:10:24;23.30;99.90
42803;DHT22;28447;48.682;9.022;2023-06-10T07:12:50;23.40;99.90
42803;DHT22;28447;48.682;9.022;2023-06-10T07:15:16;23.30;99.90
42803;DHT22;28447;48.682;9.022;2023-06-10T07:17:42;23.30;99.40
42803;DHT22;28447;48.682;9.022;2023-06-10T07:20:08;23.40;99.30
42803;DHT22;28447;48.682;9.022;2023-06-10T07:22:34;23.40;99.10
42803;DHT22;28447;48.682;9.022;2023-06-10T07:24:59;23.70;99.60
42803;DHT22;28447;48.682;9.022;2023-06-10T07:27:25;23.50;98.70
42803;DHT22;28447;48.682;9.022;2023-06-10T07:29:51;23.80;98.50
42803;DHT22;28447;48.682;9.022;2023-06-10T07:32:17;24.00;98.00
42803;DHT22;28447;48.682;9.022;2023-06-10T07:34:43;24.20;98.10
42803;DHT22;28447;48.682;9.022;2023-06-10T07:37:09;24.20;97.40
42803;DHT22;28447;48.682;9.022;2023-06-10T07:39:34;24.20;97.30
42803;DHT22;28447;48.682;9.022;2023-06-10T07:42:00;24.40;97.40
42803;DHT22;28447;48.682;9.022;2023-06-10T07:44:26;24.60;95.10
42803;DHT22;28447;48.682;9.022;2023-06-10T07:46:52;24.50;95.80
42803;DHT22;28447;48.682;9.022;2023-06-10T07:49:17;24.50;96.50
42803;DHT22;28447;48.682;9.022;2023-06-10T07:51:44;24.60;95.50
42803;DHT22;28447;48.682;9.022;2023-06-10T07:54:10;24.70;95.20
42803;DHT22;28447;48.682;9.022;2023-06-10T07:56:37;25.10;95.20
42803;DHT22;28447;48.682;9.022;2023-06-10T07:59:03;25.40;94.20
42803;DHT22;28447;48.682;9.022;2023-06-10T08:01:29;25.50;94.30
42803;DHT22;28447;48.682;9.022;2023-06-10T08:03:55;25.80;94.10
42803;DHT22;28447;48.682;9.022;2023-06-10T08:06:21;26.00;94.00
42803;DHT22;28447;48.682;9.022;2023-06-10T08:08:46;26.30;93.30
42803;DHT22;28447;48.682;9.022;2023-06-10T08:11:12;26.30;92.30
42803;DHT22;28447;48.682;9.022;2023-06-10T08:13:38;26.20;92.90
42803;DHT22;28447;48.682;9.022;2023-06-10T08:16:05;25.70;93.90
42803;DHT22;28447;48.682;9.022;2023-06-10T08:18:31;26.30;92.00
42803;DHT22;28447;48.682;9.022;2023-06-10T08:20:57;26.20;92.70
42803;DHT22;28447;48.682;9.022;2023-06-10T08:23:22;26.00;91.60
42803;DHT22;28447;48.682;9.022;2023-06-10T08:25:48;25.40;91.60
42803;DHT22;28447;48.682;9.022;2023-06-10T08:28:14;26.00;92.20
42803;DHT22;28447;48.682;9.022;2023-06-10T08:30:40;26.40;91.80
42803;DHT22;28447;48.682;9.022;2023-06-10T08:33:05;26.80;90.70
42803;DHT22;28447;48.682;9.022;2023-06-10T08:35:31;26.00;91.80
42803;DHT22;28447;48.682;9.022;2023-06-10T08:37:57;26.80;90.50
42803;DHT22;28447;48.682;9.022;2023-06-10T08:40:22;26.80;90.90
42803;DHT22;28447;48.682;9.022;2023-06-10T08:43:48;27.10;90.50
42803;DHT22;28447;48.682;9.022;2023-06-10T08:45:56;27.00;90.60
42803;DHT22;28447;48.682;9.022;2023-06-10T08:48:29;27.20;89.30
42803;DHT22;28447;48.682;9.022;2023-06-10T08:50:57;26.90;90.20
42803;DHT22;28447;48.682;9.022;2023-06-10T08:53:24;27.50;87.30
42803;DHT22;28447;48.682;9.022;2023-06-10T08:55:51;27.70;87.70
42803;DHT22;28447;48.682;9.022;2023-06-10T08:58:19;27.60;88.20
42803;DHT22;28447;48.682;9.022;2023-06-10T09:00:45;28.10;87.50
42803;DHT22;28447;48.682;9.022;2023-06-10T09:03:12;27.40;86.50
42803;DHT22;28447;48.682;9.022;2023-06-10T09:05:38;27.30;87.30
42803;DHT22;28447;48.682;9.022;2023-06-10T09:08:06;27.20;89.40
42803;DHT22;28447;48.682;9.022;2023-06-10T09:10:32;27.40;86.50
42803;DHT22;28447;48.682;9.022;2023-06-10T09:12:58;27.80;86.40
42803;DHT22;28447;48.682;9.022;2023-06-10T09:15:24;28.00;85.70
42803;DHT22;28447;48.682;9.022;2023-06-10T09:17:49;28.10;84.30
42803;DHT22;28447;48.682;9.022;2023-06-10T09:20:16;28.60;84.00
42803;DHT22;28447;48.682;9.022;2023-06-10T09:22:42;28.60;81.40
42803;DHT22;28447;48.682;9.022;2023-06-10T09:25:10;29.00;83.20
42803;DHT22;28447;48.682;9.022;2023-06-10T09:27:52;29.30;80.30
42803;DHT22;28447;48.682;9.022;2023-06-10T09:30:29;29.30;80.00
42803;DHT22;28447;48.682;9.022;2023-06-10T09:32:57;29.50;80.00
42803;DHT22;28447;48.682;9.022;2023-06-10T09:35:28;29.10;81.60
42803;DHT22;28447;48.682;9.022;2023-06-10T09:37:55;29.20;82.00
42803;DHT22;28447;48.682;9.022;2023-06-10T09:40:21;30.10;79.40
42803;DHT22;28447;48.682;9.022;2023-06-10T09:42:55;29.90;79.00
42803;DHT22;28447;48.682;9.022;2023-06-10T09:45:22;28.80;81.50
42803;DHT22;28447;48.682;9.022;2023-06-10T09:47:52;28.80;81.90
42803;DHT22;28447;48.682;9.022;2023-06-10T09:50:18;29.50;81.30
42803;DHT22;28447;48.682;9.022;2023-06-10T09:52:46;29.10;82.50
42803;DHT22;28447;48.682;9.022;2023-06-10T09:55:12;29.10;81.20
42803;DHT22;28447;48.682;9.022;2023-06-10T09:57:38;28.40;82.50
42803;DHT22;28447;48.682;9.022;2023-06-10T10:00:10;28.60;82.00
42803;DHT22;28447;48.682;9.022;2023-06-10T10:02:50;28.20;82.50
42803;DHT22;28447;48.682;9.022;2023-06-10T10:05:17;28.50;83.10
42803;DHT22;28447;48.682;9.022;2023-06-10T10:07:43;29.60;79.90
42803;DHT22;28447;48.682;9.022;2023-06-10T10:10:10;30.20;78.30
42803;DHT22;28447;48.682;9.022;2023-06-10T10:12:38;30.20;76.90
42803;DHT22;28447;48.682;9.022;2023-06-10T10:15:06;30.80;77.60
42803;DHT22;28447;48.682;9.022;2023-06-10T10:17:34;30.10;77.50
42803;DHT22;28447;48.682;9.022;2023-06-10T10:20:04;30.60;76.90
42803;DHT22;28447;48.682;9.022;2023-06-10T10:22:41;31.00;76.60
42803;DHT22;28447;48.682;9.022;2023-06-10T10:25:11;31.60;73.10
42803;DHT22;28447;48.682;9.022;2023-06-10T10:27:52;30.80;75.60
42803;DHT22;28447;48.682;9.022;2023-06-10T10:30:21;30.90;73.50
42803;DHT22;28447;48.682;9.022;2023-06-10T10:33:09;32.00;73.10
42803;DHT22;28447;48.682;9.022;2023-06-10T10:35:36;31.80;73.60
42803;DHT22;28447;48.682;9.022;2023-06-10T10:38:02;31.30;74.20
42803;DHT22;28447;48.682;9.022;2023-06-10T10:40:29;31.70;73.90
42803;DHT22;28447;48.682;9.022;2023-06-10T10:42:56;31.70;73.10
42803;DHT22;28447;48.682;9.022;2023-06-10T10:45:23;32.70;73.10
42803;DHT22;28447;48.682;9.022;2023-06-10T10:47:53;32.20;71.80
42803;DHT22;28447;48.682;9.022;2023-06-10T10:50:21;30.60;73.70
42803;DHT22;28447;48.682;9.022;2023-06-10T10:53:04;30.10;73.30
42803;DHT22;28447;48.682;9.022;2023-06-10T10:55:30;29.20;75.40
42803;DHT22;28447;48.682;9.022;2023-06-10T11:00:31;31.30;71.20
42803;DHT22;28447;48.682;9.022;2023-06-10T11:05:41;31.10;70.10
42803;DHT22;28447;48.682;9.022;2023-06-10T11:08:10;32.40;70.00
42803;DHT22;28447;48.682;9.022;2023-06-10T11:10:38;33.30;68.40
42803;DHT22;28447;48.682;9.022;2023-06-10T11:13:08;33.60;67.30
42803;DHT22;28447;48.682;9.022;2023-06-10T11:15:44;33.50;67.70
42803;DHT22;28447;48.682;9.022;2023-06-10T11:18:26;33.60;66.60
42803;DHT22;28447;48.682;9.022;2023-06-10T11:28:38;34.00;63.70
42803;DHT22;28447;48.682;9.022;2023-06-10T11:31:04;34.80;63.40
42803;DHT22;28447;48.682;9.022;2023-06-10T11:33:31;32.00;66.20
42803;DHT22;28447;48.682;9.022;2023-06-10T11:35:57;32.90;66.10
42803;DHT22;28447;48.682;9.022;2023-06-10T11:38:24;33.80;64.50
42803;DHT22;28447;48.682;9.022;2023-06-10T11:40:51;34.60;63.90
42803;DHT22;28447;48.682;9.022;2023-06-10T11:43:17;34.90;63.50
42803;DHT22;28447;48.682;9.022;2023-06-10T11:45:43;35.70;61.50
42803;DHT22;28447;48.682;9.022;2023-06-10T11:48:09;35.10;63.10
42803;DHT22;28447;48.682;9.022;2023-06-10T11:50:36;35.30;63.30
42803;DHT22;28447;48.682;9.022;2023-06-10T11:53:03;36.00;61.90
42803;DHT22;28447;48.682;9.022;2023-06-10T11:55:42;34.10;63.80
42803;DHT22;28447;48.682;9.022;2023-06-10T11:58:16;32.60;65.50
42803;DHT22;28447;48.682;9.022;2023-06-10T12:00:55;32.10;67.50
42803;DHT22;28447;48.682;9.022;2023-06-10T12:03:24;33.30;64.50
42803;DHT22;28447;48.682;9.022;2023-06-10T12:06:02;33.90;62.90
42803;DHT22;28447;48.682;9.022;2023-06-10T12:08:29;35.20;61.20
42803;DHT22;28447;48.682;9.022;2023-06-10T12:10:56;36.00;60.20
42803;DHT22;28447;48.682;9.022;2023-06-10T12:13:22;36.80;57.50
42803;DHT22;28447;48.682;9.022;2023-06-10T12:15:50;37.90;58.30
42803;DHT22;28447;48.682;9.022;2023-06-10T12:18:20;36.70;57.90
42803;DHT22;28447;48.682;9.022;2023-06-10T12:20:46;37.70;56.60
42803;DHT22;28447;48.682;9.022;2023-06-10T12:23:12;36.90;58.60
42803;DHT22;28447;48.682;9.022;2023-06-10T12:25:38;36.20;60.10
42803;DHT22;28447;48.682;9.022;2023-06-10T12:28:05;33.70;61.60
42803;DHT22;28447;48.682;9.022;2023-06-10T12:30:31;35.40;60.50
42803;DHT22;28447;48.682;9.022;2023-06-10T12:32:57;33.50;63.50
42803;DHT22;28447;48.682;9.022;2023-06-10T12:35:24;34.20;62.60
42803;DHT22;28447;48.682;9.022;2023-06-10T12:38:01;33.30;62.10
42803;DHT22;28447;48.682;9.022;2023-06-10T12:40:33;32.20;66.50
42803;DHT22;28447;48.682;9.022;2023-06-10T12:43:00;32.00;64.50
42803;DHT22;28447;48.682;9.022;2023-06-10T12:45:33;31.30;66.70
42803;DHT22;28447;48.682;9.022;2023-06-10T12:48:24;30.40;68.10
42803;DHT22;28447;48.682;9.022;2023-06-10T12:50:58;31.00;68.40
42803;DHT22;28447;48.682;9.022;2023-06-10T12:53:24;30.30;69.80
42803;DHT22;28447;48.682;9.022;2023-06-10T12:55:50;30.60;69.40
42803;DHT22;28447;48.682;9.022;2023-06-10T12:58:16;32.70;65.00
42803;DHT22;28447;48.682;9.022;2023-06-10T13:00:42;33.50;63.40
42803;DHT22;28447;48.682;9.022;2023-06-10T13:03:09;36.00;59.50
42803;DHT22;28447;48.682;9.022;2023-06-10T13:05:35;35.40;61.50
42803;DHT22;28447;48.682;9.022;2023-06-10T13:08:07;37.00;58.40
42803;DHT22;28447;48.682;9.022;2023-06-10T13:10:35;36.60;57.20
42803;DHT22;28447;48.682;9.022;2023-06-10T13:13:02;37.50;57.50
42803;DHT22;28447;48.682;9.022;2023-06-10T13:15:28;37.70;56.80
42803;DHT22;28447;48.682;9.022;2023-06-10T13:17:53;37.00;57.30
42803;DHT22;28447;48.682;9.022;2023-06-10T13:20:19;35.60;58.70
42803;DHT22;28447;48.682;9.022;2023-06-10T13:22:46;36.90;57.70
42803;DHT22;28447;48.682;9.022;2023-06-10T13:25:13;35.80;57.90
42803;DHT22;28447;48.682;9.022;2023-06-10T13:27:38;34.80;61.80
42803;DHT22;28447;48.682;9.022;2023-06-10T13:30:05;32.70;62.40
42803;DHT22;28447;48.682;9.022;2023-06-10T13:32:31;32.30;63.50
42803;DHT22;28447;48.682;9.022;2023-06-10T13:34:57;31.00;66.50
42803;DHT22;28447;48.682;9.022;2023-06-10T13:37:23;31.50;66.80
42803;DHT22;28447;48.682;9.022;2023-06-10T13:39:49;33.30;64.00
42803;DHT22;28447;48.682;9.022;2023-06-10T13:42:19;34.50;61.60
42803;DHT22;28447;48.682;9.022;2023-06-10T13:44:46;35.80;60.90
42803;DHT22;28447;48.682;9.022;2023-06-10T13:47:13;36.00;59.10
42803;DHT22;28447;48.682;9.022;2023-06-10T13:49:38;36.90;57.10
42803;DHT22;28447;48.682;9.022;2023-06-10T13:52:05;38.70;55.90
42803;DHT22;28447;48.682;9.022;2023-06-10T13:54:31;39.00;56.30
42803;DHT22;28447;48.682;9.022;2023-06-10T13:56:57;40.00;54.90
42803;DHT22;28447;48.682;9.022;2023-06-10T13:59:23;40.10;53.10
42803;DHT22;28447;48.682;9.022;2023-06-10T14:01:48;39.70;53.50
42803;DHT22;28447;48.682;9.022;2023-06-10T14:04:14;40.00;52.10
42803;DHT22;28447;48.682;9.022;2023-06-10T14:06:40;38.40;54.30
42803;DHT22;28447;48.682;9.022;2023-06-10T14:09:05;35.50;58.30
42803;DHT22;28447;48.682;9.022;2023-06-10T14:11:31;34.60;60.10
42803;DHT22;28447;48.682;9.022;2023-06-10T14:13:57;33.50;61.80
42803;DHT22;28447;48.682;9.022;2023-06-10T14:16:23;33.60;60.60
42803;DHT22;28447;48.682;9.022;2023-06-10T14:18:49;33.60;60.50
42803;DHT22;28447;48.682;9.022;2023-06-10T14:21:16;33.00;63.00
42803;DHT22;28447;48.682;9.022;2023-06-10T14:23:42;33.50;61.60
42803;DHT22;28447;48.682;9.022;2023-06-10T14:26:09;34.70;60.00
42803;DHT22;28447;48.682;9.022;2023-06-10T14:28:35;35.10;59.40
42803;DHT22;28447;48.682;9.022;2023-06-10T14:31:01;36.60;57.60
42803;DHT22;28447;48.682;9.022;2023-06-10T14:33:26;37.40;55.80
42803;DHT22;28447;48.682;9.022;2023-06-10T14:35:52;37.90;55.70
42803;DHT22;28447;48.682;9.022;2023-06-10T14:38:18;39.20;54.60
42803;DHT22;28447;48.682;9.022;2023-06-10T14:40:44;37.30;57.00
42803;DHT22;28447;48.682;9.022;2023-06-10T14:43:09;36.20;56.50
42803;DHT22;28447;48.682;9.022;2023-06-10T14:45:36;34.80;58.90
42803;DHT22;28447;48.682;9.022;2023-06-10T14:48:03;34.90;59.30
42803;DHT22;28447;48.682;9.022;2023-06-10T14:50:29;36.10;57.70
42803;DHT22;28447;48.682;9.022;2023-06-10T14:52:55;36.60;55.60
42803;DHT22;28447;48.682;9.022;2023-06-10T14:55:20;36.60;57.70
42803;DHT22;28447;48.682;9.022;2023-06-10T14:57:48;37.90;55.20
42803;DHT22;28447;48.682;9.022;2023-06-10T15:00:14;38.30;54.40
42803;DHT22;28447;48.682;9.022;2023-06-10T15:02:42;37.50;55.00
42803;DHT22;28447;48.682;9.022;2023-06-10T15:05:08;37.30;55.10
42803;DHT22;28447;48.682;9.022;2023-06-10T15:07:34;38.80;52.90
42803;DHT22;28447;48.682;9.022;2023-06-10T15:09:59;38.30;52.70
42803;DHT22;28447;48.682;9.022;2023-06-10T15:12:25;37.10;55.90
42803;DHT22;28447;48.682;9.022;2023-06-10T15:14:51;38.30;53.80
42803;DHT22;28447;48.682;9.022;2023-06-10T15:17:16;38.20;53.60
42803;DHT22;28447;48.682;9.022;2023-06-10T15:19:42;36.50;55.20
42803;DHT22;28447;48.682;9.022;2023-06-10T15:22:08;34.60;57.20
42803;DHT22;28447;48.682;9.022;2023-06-10T15:24:33;34.20;58.10
42803;DHT22;28447;48.682;9.022;2023-06-10T15:26:59;33.30;58.80
42803;DHT22;28447;48.682;9.022;2023-06-10T15:29:25;33.10;60.50
42803;DHT22;28447;48.682;9.022;2023-06-10T15:31:51;33.10;61.40
42803;DHT22;28447;48.682;9.022;2023-06-10T15:34:16;32.90;62.00
42803;DHT22;28447;48.682;9.022;2023-06-10T15:36:42;32.60;62.20
42803;DHT22;28447;48.682;9.022;2023-06-10T15:39:08;33.00;62.40
42803;DHT22;28447;48.682;9.022;2023-06-10T15:41:34;33.60;60.30
42803;DHT22;28447;48.682;9.022;2023-06-10T15:44:00;33.20;60.70
42803;DHT22;28447;48.682;9.022;2023-06-10T15:46:27;33.10;61.00
42803;DHT22;28447;48.682;9.022;2023-06-10T15:48:53;33.40;60.60
42803;DHT22;28447;48.682;9.022;2023-06-10T15:51:19;32.80;62.00
42803;DHT22;28447;48.682;9.022;2023-06-10T15:53:45;31.90;63.90
42803;DHT22;28447;48.682;9.022;2023-06-10T15:56:11;31.00;66.10
42803;DHT22;28447;48.682;9.022;2023-06-10T15:58:37;31.40;68.50
42803;DHT22;28447;48.682;9.022;2023-06-10T16:01:03;31.90;66.00
42803;DHT22;28447;48.682;9.022;2023-06-10T16:03:28;32.30;66.30
42803;DHT22;28447;48.682;9.022;2023-06-10T16:05:54;32.40;65.10
42803;DHT22;28447;48.682;9.022;2023-06-10T16:08:20;31.90;65.00
42803;DHT22;28447;48.682;9.022;2023-06-10T16:10:46;32.00;65.90
42803;DHT22;28447;48.682;9.022;2023-06-10T16:13:11;32.30;62.70
42803;DHT22;28447;48.682;9.022;2023-06-10T16:15:37;32.00;64.20
42803;DHT22;28447;48.682;9.022;2023-06-10T16:18:03;31.90;64.40
42803;DHT22;28447;48.682;9.022;2023-06-10T16:20:28;32.00;66.20
42803;DHT22;28447;48.682;9.022;2023-06-10T16:22:55;31.70;64.30
42803;DHT22;28447;48.682;9.022;2023-06-10T16:25:21;31.60;64.10
42803;DHT22;28447;48.682;9.022;2023-06-10T16:27:46;31.00;65.00
42803;DHT22;28447;48.682;9.022;2023-06-10T16:30:12;31.60;67.50
42803;DHT22;28447;48.682;9.022;2023-06-10T16:32:39;31.80;67.30
42803;DHT22;28447;48.682;9.022;2023-06-10T16:35:06;31.90;65.50
42803;DHT22;28447;48.682;9.022;2023-06-10T16:37:32;31.40;65.10
42803;DHT22;28447;48.682;9.022;2023-06-10T16:39:57;31.10;66.40
42803;DHT22;28447;48.682;9.022;2023-06-10T16:42:23;31.10;66.30
42803;DHT22;28447;48.682;9.022;2023-06-10T16:44:49;30.80;68.10
42803;DHT22;28447;48.682;9.022;2023-06-10T16:47:14;30.80;68.00
42803;DHT22;28447;48.682;9.022;2023-06-10T16:49:40;30.70;66.30
42803;DHT22;28447;48.682;9.022;2023-06-10T16:52:06;30.10;65.50
42803;DHT22;28447;48.682;9.022;2023-06-10T16:54:31;29.70;66.20
42803;DHT22;28447;48.682;9.022;2023-06-10T16:56:57;29.40;66.40
42803;DHT22;28447;48.682;9.022;2023-06-10T16:59:23;28.90;68.30
42803;DHT22;28447;48.682;9.022;2023-06-10T17:01:48;29.10;68.60
42803;DHT22;28447;48.682;9.022;2023-06-10T17:04:14;29.40;67.50
42803;DHT22;28447;48.682;9.022;2023-06-10T17:06:39;28.90;69.20
42803;DHT22;28447;48.682;9.022;2023-06-10T17:09:05;29.10;69.40
42803;DHT22;28447;48.682;9.022;2023-06-10T17:11:31;29.00;68.30
42803;DHT22;28447;48.682;9.022;2023-06-10T17:13:58;29.00;69.80
42803;DHT22;28447;48.682;9.022;2023-06-10T17:16:24;28.80;70.30
42803;DHT22;28447;48.682;9.022;2023-06-10T17:18:49;28.80;70.70
42803;DHT22;28447;48.682;9.022;2023-06-10T17:21:15;28.50;69.90
42803;DHT22;28447;48.682;9.022;2023-06-10T17:23:41;28.60;73.10
42803;DHT22;28447;48.682;9.022;2023-06-10T17:26:06;28.30;71.20
42803;DHT22;28447;48.682;9.022;2023-06-10T17:28:32;28.40;73.20
42803;DHT22;28447;48.682;9.022;2023-06-10T17:30:58;28.40;73.60
42803;DHT22;28447;48.682;9.022;2023-06-10T17:33:23;28.30;72.10
42803;DHT22;28447;48.682;9.022;2023-06-10T17:35:49;28.20;73.20
42803;DHT22;28447;48.682;9.022;2023-06-10T17:38:15;27.90;70.70
42803;DHT22;28447;48.682;9.022;2023-06-10T17:40:42;27.70;74.30
42803;DHT22;28447;48.682;9.022;2023-06-10T17:43:08;27.60;72.60
42803;DHT22;28447;48.682;9.022;2023-06-10T17:45:34;27.40;72.70
42803;DHT22;28447;48.682;9.022;2023-06-10T17:47:59;27.30;74.00
42803;DHT22;28447;48.682;9.022;2023-06-10T17:50:25;27.30;73.70
42803;DHT22;28447;48.682;9.022;2023-06-10T17:52:50;27.30;71.40
42803;DHT22;28447;48.682;9.022;2023-06-10T17:55:16;27.10;73.70
42803;DHT22;28447;48.682;9.022;2023-06-10T17:57:42;27.20;73.00
42803;DHT22;28447;48.682;9.022;2023-06-10T18:00:08;27.10;74.00
42803;DHT22;28447;48.682;9.022;2023-06-10T18:02:34;27.30;73.50
42803;DHT22;28447;48.682;9.022;2023-06-10T18:05:00;26.90;72.40
42803;DHT22;28447;48.682;9.022;2023-06-10T18:07:25;26.90;74.60
42803;DHT22;28447;48.682;9.022;2023-06-10T18:09:51;26.60;75.10
42803;DHT22;28447;48.682;9.022;2023-06-10T18:12:16;26.60;74.00
42803;DHT22;28447;48.682;9.022;2023-06-10T18:14:42;26.40;75.50
42803;DHT22;28447;48.682;9.022;2023-06-10T18:17:08;26.20;74.90
42803;DHT22;28447;48.682;9.022;2023-06-10T18:19:33;26.10;75.40
42803;DHT22;28447;48.682;9.022;2023-06-10T18:21:59;26.00;75.80
42803;DHT22;28447;48.682;9.022;2023-06-10T18:24:25;25.90;76.80
42803;DHT22;28447;48.682;9.022;2023-06-10T18:26:50;25.70;76.60
42803;DHT22;28447;48.682;9.022;2023-06-10T18:29:16;25.30;77.30
42803;DHT22;28447;48.682;9.022;2023-06-10T18:31:42;25.00;78.00
42803;DHT22;28447;48.682;9.022;2023-06-10T18:34:07;25.00;78.70
42803;DHT22;28447;48.682;9.022;2023-06-10T18:36:33;24.80;79.30
42803;DHT22;28447;48.682;9.022;2023-06-10T18:38:59;24.60;80.30
42803;DHT22;28447;48.682;9.022;2023-06-10T18:41:24;24.60;80.50
42803;DHT22;28447;48.682;9.022;2023-06-10T18:43:51;24.40;82.00
42803;DHT22;28447;48.682;9.022;2023-06-10T18:46:17;24.20;81.30
42803;DHT22;28447;48.682;9.022;2023-06-10T18:48:43;24.30;81.40
42803;DHT22;28447;48.682;9.022;2023-06-10T18:51:10;24.30;81.20
42803;DHT22;28447;48.682;9.022;2023-06-10T18:53:36;24.20;82.50
42803;DHT22;28447;48.682;9.022;2023-06-10T18:56:01;23.90;82.90
42803;DHT22;28447;48.682;9.022;2023-06-10T18:58:30;23.80;83.20
42803;DHT22;28447;48.682;9.022;2023-06-10T19:00:58;23.80;82.80
42803;DHT22;28447;48.682;9.022;2023-06-10T19:03:25;23.70;82.80
42803;DHT22;28447;48.682;9.022;2023-06-10T19:05:51;23.70;82.90
42803;DHT22;28447;48.682;9.022;2023-06-10T19:08:17;23.80;82.40
42803;DHT22;28447;48.682;9.022;2023-06-10T19:10:42;23.70;83.70
42803;DHT22;28447;48.682;9.022;2023-06-10T19:13:09;23.60;83.30
42803;DHT22;28447;48.682;9.022;2023-06-10T19:15:35;23.40;85.00
42803;DHT22;28447;48.682;9.022;2023-06-10T19:18:00;23.40;84.40
42803;DHT22;28447;48.682;9.022;2023-06-10T19:20:26;23.20;84.90
42803;DHT22;28447;48.682;9.022;2023-06-10T19:22:51;23.20;84.60
42803;DHT22;28447;48.682;9.022;2023-06-10T19:25:17;23.10;84.40
42803;DHT22;28447;48.682;9.022;2023-06-10T19:27:45;23.00;85.90
42803;DHT22;28447;48.682;9.022;2023-06-10T19:30:11;22.90;85.10
42803;DHT22;28447;48.682;9.022;2023-06-10T19:32:37;22.90;86.10
42803;DHT22;28447;48.682;9.022;2023-06-10T19:35:03;22.90;85.10
42803;DHT22;28447;48.682;9.022;2023-06-10T19:37:29;22.90;86.10
42803;DHT22;28447;48.682;9.022;2023-06-10T19:39:55;22.70;86.50